createdAt,value
2023-04-05T00:01:15.869Z,5.00
2023-04-05T00:03:44.055Z,4.90
2023-04-05T00:06:13.322Z,5.25
2023-04-05T00:08:44.359Z,5.07
2023-04-05T00:11:12.398Z,5.10
2023-04-05T00:13:40.458Z,5.40
2023-04-05T00:16:09.009Z,5.20
2023-04-05T00:18:38.670Z,5.72
2023-04-05T00:21:07.550Z,5.33
2023-04-05T00:23:38.654Z,5.45
2023-04-05T00:26:08.597Z,6.35
2023-04-05T00:28:36.880Z,5.60
2023-04-05T00:31:05.314Z,5.43
2023-04-05T00:33:33.422Z,5.13
2023-04-05T00:36:11.265Z,5.38
2023-04-05T00:38:40.139Z,5.57
2023-04-05T00:41:10.111Z,5.38
2023-04-05T00:43:38.248Z,5.78
2023-04-05T00:46:06.964Z,5.80
2023-04-05T00:48:35.977Z,6.85
2023-04-05T00:51:04.375Z,5.90
2023-04-05T00:53:33.113Z,5.10
2023-04-05T00:56:02.451Z,6.15
2023-04-05T00:58:31.986Z,6.13
2023-04-05T01:01:06.901Z,5.45
2023-04-05T01:03:37.151Z,6.10
2023-04-05T01:06:19.074Z,5.65
2023-04-05T01:08:56.170Z,5.45
2023-04-05T01:11:26.348Z,6.18
2023-04-05T01:14:00.846Z,6.28
2023-04-05T01:16:29.052Z,6.00
2023-04-05T01:18:57.696Z,6.05
2023-04-05T01:22:14.129Z,6.22
2023-04-05T01:25:10.785Z,5.95
2023-04-05T01:27:57.097Z,6.10
2023-04-05T01:30:31.157Z,6.47
2023-04-05T01:33:12.168Z,9.00
2023-04-05T01:35:45.660Z,8.65
2023-04-05T01:38:20.781Z,9.00
2023-04-05T01:40:49.735Z,8.85
2023-04-05T01:43:18.543Z,8.05
2023-04-05T01:45:48.437Z,8.52
2023-04-05T01:48:16.992Z,7.43
2023-04-05T01:50:45.048Z,7.95
2023-04-05T01:53:13.086Z,7.60
2023-04-05T01:55:41.073Z,8.03
2023-04-05T01:58:09.150Z,8.48
2023-04-05T02:00:37.228Z,7.80
2023-04-05T02:03:06.843Z,6.50
2023-04-05T02:05:35.195Z,6.15
2023-04-05T02:08:03.347Z,6.30
2023-04-05T02:10:31.501Z,6.75
2023-04-05T02:13:01.135Z,5.72
2023-04-05T02:15:30.025Z,6.68
2023-04-05T02:18:02.136Z,6.72
2023-04-05T02:20:32.969Z,6.25
2023-04-05T02:23:02.194Z,5.15
2023-04-05T02:25:30.377Z,6.80
2023-04-05T02:27:58.475Z,6.63
2023-04-05T02:30:29.030Z,7.30
2023-04-05T02:32:57.325Z,6.85
2023-04-05T02:35:25.637Z,6.38
2023-04-05T02:37:56.766Z,6.53
2023-04-05T02:40:25.381Z,6.25
2023-04-05T02:42:53.451Z,6.30
2023-04-05T02:45:21.480Z,6.20
2023-04-05T02:47:49.608Z,7.20
2023-04-05T02:50:20.524Z,6.50
2023-04-05T02:52:48.772Z,6.75
2023-04-05T02:55:18.805Z,7.05
2023-04-05T02:57:47.343Z,7.40
2023-04-05T03:00:16.666Z,6.03
2023-04-05T03:02:44.798Z,6.10
2023-04-05T03:05:14.023Z,6.47
2023-04-05T03:07:42.753Z,6.70
2023-04-05T03:10:10.937Z,6.47
2023-04-05T03:12:40.576Z,7.60
2023-04-05T03:15:09.852Z,6.40
2023-04-05T03:17:38.127Z,6.88
2023-04-05T03:20:08.862Z,7.10
2023-04-05T03:22:37.325Z,6.20
2023-04-05T03:25:06.415Z,6.10
2023-04-05T03:27:34.514Z,6.25
2023-04-05T03:30:04.193Z,7.20
2023-04-05T03:32:32.328Z,7.32
2023-04-05T03:35:00.384Z,7.10
2023-04-05T03:37:28.798Z,7.18
2023-04-05T03:39:57.683Z,10.68
2023-04-05T03:42:26.089Z,11.00
2023-04-05T03:44:54.814Z,12.13
2023-04-05T03:47:24.371Z,10.05
2023-04-05T03:49:52.645Z,8.55
2023-04-05T03:52:22.371Z,8.23
2023-04-05T03:54:50.647Z,8.20
2023-04-05T03:57:19.785Z,8.30
2023-04-05T03:59:49.423Z,9.30
2023-04-05T04:02:17.573Z,9.23
2023-04-05T04:04:47.255Z,8.20
2023-04-05T04:07:15.755Z,9.25
2023-04-05T04:09:44.004Z,8.70
2023-04-05T04:12:13.020Z,7.78
2023-04-05T04:14:41.073Z,8.20
2023-04-05T04:17:09.183Z,7.88
2023-04-05T04:19:37.353Z,7.75
2023-04-05T04:22:10.204Z,7.03
2023-04-05T04:24:38.336Z,7.32
2023-04-05T04:27:06.923Z,7.43
2023-04-05T04:29:39.087Z,7.10
2023-04-05T04:32:07.889Z,7.78
2023-04-05T04:34:38.157Z,7.35
2023-04-05T04:37:07.590Z,7.35
2023-04-05T04:39:39.584Z,8.10
2023-04-05T04:42:10.716Z,7.63
2023-04-05T04:44:39.295Z,7.47
2023-04-05T04:47:14.881Z,7.95
2023-04-05T04:49:43.090Z,7.40
2023-04-05T04:52:12.682Z,7.47
2023-04-05T04:54:42.368Z,7.55
2023-04-05T04:57:10.483Z,7.40
2023-04-05T04:59:38.654Z,7.63
2023-04-05T05:02:08.220Z,8.13
2023-04-05T05:04:36.472Z,8.13
2023-04-05T05:07:04.607Z,8.07
2023-04-05T05:09:34.001Z,8.50
2023-04-05T05:12:02.148Z,7.25
2023-04-05T05:14:30.266Z,7.43
2023-04-05T05:16:59.136Z,8.50
2023-04-05T05:19:27.269Z,8.05
2023-04-05T05:21:55.409Z,8.10
2023-04-05T05:24:23.682Z,7.80
2023-04-05T05:26:53.097Z,8.05
2023-04-05T05:29:21.416Z,8.30
2023-04-05T05:31:49.525Z,8.25
2023-04-05T05:34:17.777Z,8.13
2023-04-05T05:36:45.812Z,8.32
2023-04-05T05:39:14.005Z,9.10
2023-04-05T05:41:42.109Z,9.57
2023-04-05T05:44:11.607Z,8.93
2023-04-05T05:46:39.817Z,8.75
2023-04-05T05:49:07.928Z,8.82
2023-04-05T05:51:36.497Z,9.30
2023-04-05T05:54:04.957Z,9.30
2023-04-05T05:56:32.974Z,8.40
2023-04-05T05:59:01.783Z,9.95
2023-04-05T06:01:34.416Z,9.38
2023-04-05T06:04:02.636Z,10.43
2023-04-05T06:06:31.113Z,9.80
2023-04-05T06:08:59.176Z,11.00
2023-04-05T06:11:27.202Z,11.35
2023-04-05T06:13:55.962Z,11.73
2023-04-05T06:16:24.148Z,11.23
2023-04-05T06:18:55.544Z,10.05
2023-04-05T06:21:23.899Z,9.60
2023-04-05T06:23:51.936Z,10.60
2023-04-05T06:26:21.752Z,10.32
2023-04-05T06:28:49.947Z,9.90
2023-04-05T06:31:18.535Z,10.90
2023-04-05T06:33:46.598Z,10.95
2023-04-05T06:36:15.991Z,10.57
2023-04-05T06:38:44.173Z,10.95
2023-04-05T06:41:12.204Z,10.67
2023-04-05T06:43:40.408Z,10.67
2023-04-05T06:46:11.581Z,10.30
2023-04-05T06:48:40.147Z,9.83
2023-04-05T06:51:08.232Z,10.47
2023-04-05T06:53:37.690Z,10.63
2023-04-05T06:56:06.170Z,10.87
2023-04-05T06:58:34.251Z,9.43
2023-04-05T07:01:02.643Z,9.03
2023-04-05T07:03:31.113Z,8.87
2023-04-05T07:06:01.463Z,9.33
2023-04-05T07:08:32.127Z,8.57
2023-04-05T07:11:01.638Z,7.80
2023-04-05T07:13:29.901Z,9.20
2023-04-05T07:16:02.371Z,9.10
2023-04-05T07:18:30.859Z,9.27
2023-04-05T07:21:03.999Z,7.90
2023-04-05T07:23:32.341Z,8.73
2023-04-05T07:26:04.809Z,8.47
2023-04-05T07:28:35.487Z,7.73
2023-04-05T07:31:04.246Z,7.27
2023-04-05T07:33:32.325Z,8.17
2023-04-05T07:36:00.553Z,7.67
2023-04-05T07:38:29.266Z,7.17
2023-04-05T07:40:57.482Z,7.23
2023-04-05T07:43:26.947Z,7.30
2023-04-05T07:46:02.699Z,7.17
2023-04-05T07:48:31.141Z,7.70
2023-04-05T07:51:05.122Z,7.60
2023-04-05T07:53:33.233Z,6.90
2023-04-05T07:56:05.375Z,6.90
2023-04-05T07:58:35.397Z,7.00
2023-04-05T08:01:04.205Z,8.03
2023-04-05T08:03:35.157Z,6.83
2023-04-05T08:06:11.486Z,7.17
2023-04-05T08:08:39.626Z,7.10
2023-04-05T08:11:07.819Z,6.53
2023-04-05T08:13:40.435Z,7.10
2023-04-05T08:16:09.213Z,7.67
2023-04-05T08:18:37.683Z,7.53
2023-04-05T08:21:06.361Z,7.90
2023-04-05T08:23:34.513Z,7.10
2023-04-05T08:26:02.766Z,6.43
2023-04-05T08:28:31.130Z,6.07
2023-04-05T08:31:00.504Z,7.50
2023-04-05T08:33:31.123Z,7.57
2023-04-05T08:35:59.421Z,6.30
2023-04-05T08:38:27.571Z,8.30
2023-04-05T08:40:55.798Z,6.70
2023-04-05T08:43:29.872Z,8.07
2023-04-05T08:46:00.271Z,6.20
2023-04-05T08:48:32.693Z,6.20
2023-04-05T08:51:00.962Z,7.67
2023-04-05T08:53:29.595Z,6.23
2023-04-05T08:55:59.698Z,6.67
2023-04-05T08:58:28.474Z,5.93
2023-04-05T09:00:58.490Z,6.30
2023-04-05T09:03:32.483Z,6.70
2023-04-05T09:06:01.197Z,7.40
2023-04-05T09:08:29.538Z,6.47
2023-04-05T09:10:57.594Z,14.20
2023-04-05T09:13:25.755Z,21.47
2023-04-05T09:15:54.069Z,12.40
2023-04-05T09:18:26.966Z,7.87
2023-04-05T09:21:04.854Z,7.33
2023-04-05T09:23:34.923Z,6.50
2023-04-05T09:26:04.701Z,6.63
2023-04-05T09:28:43.844Z,5.60
2023-04-05T09:31:30.201Z,5.80
2023-04-05T09:34:00.150Z,5.90
2023-04-05T09:36:29.815Z,6.57
2023-04-05T09:39:07.805Z,5.90
2023-04-05T09:41:36.692Z,5.50
2023-04-05T09:44:05.040Z,6.27
2023-04-05T09:46:35.501Z,6.70
2023-04-05T09:49:06.613Z,6.20
2023-04-05T09:51:37.715Z,5.77
2023-04-05T09:54:07.329Z,6.20
2023-04-05T09:56:36.740Z,5.83
2023-04-05T09:59:10.631Z,6.10
2023-04-05T10:01:41.514Z,6.57
2023-04-05T10:04:10.239Z,6.00
2023-04-05T10:06:41.252Z,7.07
2023-04-05T10:09:15.234Z,6.57
2023-04-05T10:11:45.174Z,6.77
2023-04-05T10:14:13.338Z,6.67
2023-04-05T10:16:50.909Z,5.83
2023-04-05T10:19:27.710Z,5.77
2023-04-05T10:22:01.978Z,6.47
2023-04-05T10:24:37.703Z,5.77
2023-04-05T10:27:10.188Z,5.47
2023-04-05T10:29:45.651Z,7.07
2023-04-05T10:32:24.596Z,5.90
2023-04-05T10:34:58.585Z,5.60
2023-04-05T10:37:48.312Z,5.90
2023-04-05T10:40:21.682Z,5.60
2023-04-05T10:42:50.914Z,5.90
2023-04-05T10:45:22.349Z,6.03
2023-04-05T10:47:55.546Z,5.63
2023-04-05T10:50:25.444Z,6.30
2023-04-05T10:52:55.141Z,6.27
2023-04-05T10:55:24.032Z,5.43
2023-04-05T10:57:52.836Z,5.20
2023-04-05T11:00:22.061Z,5.73
2023-04-05T11:02:54.738Z,5.03
2023-04-05T11:05:34.126Z,5.10
2023-04-05T11:08:06.082Z,5.60
2023-04-05T11:10:37.573Z,5.00
2023-04-05T11:13:10.625Z,5.50
2023-04-05T11:15:40.086Z,5.80
2023-04-05T11:18:12.285Z,5.70
2023-04-05T11:20:45.555Z,6.10
2023-04-05T11:23:16.603Z,5.53
2023-04-05T11:25:49.568Z,5.33
2023-04-05T11:28:31.893Z,5.72
2023-04-05T11:31:14.042Z,5.53
2023-04-05T11:34:10.222Z,5.20
2023-04-05T11:36:41.708Z,6.13
2023-04-05T11:39:30.635Z,8.17
2023-04-05T11:42:02.380Z,6.37
2023-04-05T11:44:40.306Z,6.40
2023-04-05T11:47:08.532Z,5.97
2023-04-05T11:49:36.582Z,5.83
2023-04-05T11:52:13.190Z,6.27
2023-04-05T11:54:46.572Z,6.53
2023-04-05T11:57:17.450Z,6.00
2023-04-05T11:59:45.896Z,16.30
2023-04-05T12:02:14.248Z,6.63
2023-04-05T12:04:42.342Z,5.90
2023-04-05T12:07:15.517Z,6.77
2023-04-05T12:10:07.307Z,6.03
2023-04-05T12:12:40.235Z,5.50
2023-04-05T12:15:11.007Z,6.20
2023-04-05T12:17:57.390Z,7.07
2023-04-05T12:20:26.969Z,6.10
2023-04-05T12:22:57.169Z,6.00
2023-04-05T12:25:27.305Z,6.70
2023-04-05T12:27:55.469Z,6.53
2023-04-05T12:30:25.220Z,6.70
2023-04-05T12:32:55.503Z,6.80
2023-04-05T12:35:27.141Z,6.73
2023-04-05T12:37:58.711Z,6.50
2023-04-05T12:40:30.912Z,7.07
2023-04-05T12:43:03.299Z,7.00
2023-04-05T12:45:40.091Z,6.50
2023-04-05T12:48:11.774Z,6.47
2023-04-05T12:50:44.444Z,7.20
2023-04-05T12:53:20.323Z,6.60
2023-04-05T12:55:54.990Z,6.97
2023-04-05T12:58:25.053Z,6.60
2023-04-05T13:00:53.147Z,6.90
2023-04-05T13:03:23.742Z,7.43
2023-04-05T13:05:51.955Z,6.27
2023-04-05T13:08:20.745Z,6.20
2023-04-05T13:10:50.491Z,6.70
2023-04-05T13:13:21.165Z,6.00
2023-04-05T13:15:51.955Z,6.57
2023-04-05T13:18:20.710Z,6.60
2023-04-05T13:20:49.059Z,5.97
2023-04-05T13:23:17.232Z,6.73
2023-04-05T13:25:46.438Z,5.47
2023-04-05T13:28:15.885Z,6.20
2023-04-05T13:30:45.668Z,5.80
2023-04-05T13:33:14.210Z,6.30
2023-04-05T13:35:42.690Z,6.13
2023-04-05T13:38:11.190Z,6.50
2023-04-05T13:40:39.378Z,5.90
2023-04-05T13:43:07.449Z,5.70
2023-04-05T13:45:37.794Z,7.13
2023-04-05T13:48:07.572Z,6.40
2023-04-05T13:50:36.461Z,7.03
2023-04-05T13:53:04.523Z,6.20
2023-04-05T13:55:32.571Z,6.80
2023-04-05T13:58:00.713Z,5.83
2023-04-05T14:00:28.861Z,6.50
2023-04-05T14:02:57.136Z,6.30
2023-04-05T14:05:27.400Z,7.37
2023-04-05T14:07:55.592Z,7.40
2023-04-05T14:10:23.937Z,8.00
2023-04-05T14:12:52.545Z,6.60
2023-04-05T14:15:20.834Z,5.87
2023-04-05T14:17:49.040Z,7.23
2023-04-05T14:20:17.350Z,7.17
2023-04-05T14:22:47.311Z,6.90
2023-04-05T14:25:15.505Z,6.60
2023-04-05T14:27:43.760Z,6.57
2023-04-05T14:30:13.192Z,6.88
2023-04-05T14:32:41.646Z,7.40
2023-04-05T14:35:10.948Z,7.17
2023-04-05T14:37:39.402Z,6.80
2023-04-05T14:40:09.868Z,6.97
2023-04-05T14:42:48.591Z,7.80
2023-04-05T14:45:18.184Z,7.00
2023-04-05T14:47:46.776Z,7.20
2023-04-05T14:50:15.385Z,7.40
2023-04-05T14:52:43.645Z,6.90
2023-04-05T14:55:13.593Z,6.67
2023-04-05T14:57:42.411Z,6.53
2023-04-05T15:00:11.895Z,7.00
2023-04-05T15:02:40.796Z,7.00
2023-04-05T15:05:09.797Z,6.87
2023-04-05T15:07:38.140Z,7.20
2023-04-05T15:10:07.443Z,6.63
2023-04-05T15:12:37.150Z,7.97
2023-04-05T15:15:06.334Z,6.70
2023-04-05T15:17:34.873Z,6.90
2023-04-05T15:20:03.095Z,6.57
2023-04-05T15:22:31.391Z,6.80
2023-04-05T15:24:59.943Z,6.27
2023-04-05T15:27:28.142Z,6.30
2023-04-05T15:29:57.733Z,6.37
2023-04-05T15:32:26.047Z,5.97
2023-04-05T15:34:54.375Z,5.47
2023-04-05T15:37:22.564Z,5.93
2023-04-05T15:39:50.895Z,6.40
2023-04-05T15:42:21.852Z,6.30
2023-04-05T15:44:50.499Z,7.17
2023-04-05T15:47:20.394Z,6.40
2023-04-05T15:49:51.345Z,6.97
2023-04-05T15:52:19.513Z,6.50
2023-04-05T15:54:47.852Z,6.63
2023-04-05T15:57:16.082Z,6.70
2023-04-05T15:59:44.536Z,6.40
2023-04-05T16:02:12.834Z,6.13
2023-04-05T16:04:42.606Z,6.20
2023-04-05T16:07:10.857Z,6.97
2023-04-05T16:09:39.093Z,6.13
2023-04-05T16:12:07.517Z,6.50
2023-04-05T16:14:35.788Z,6.80
2023-04-05T16:17:04.047Z,6.50
2023-04-05T16:19:32.675Z,6.03
2023-04-05T16:22:03.459Z,6.13
2023-04-05T16:24:33.272Z,5.87
2023-04-05T16:27:01.656Z,6.60
2023-04-05T16:29:29.788Z,6.10
2023-04-05T16:31:58.094Z,6.50
2023-04-05T16:34:26.482Z,6.00
2023-04-05T16:36:54.742Z,5.80
2023-04-05T16:39:24.323Z,6.40
2023-04-05T16:41:52.768Z,5.30
2023-04-05T16:44:20.992Z,5.57
2023-04-05T16:46:49.144Z,5.70
2023-04-05T16:49:17.447Z,4.70
2023-04-05T16:51:45.667Z,5.93
2023-04-05T16:54:13.873Z,5.93
2023-04-05T16:56:43.520Z,5.10
2023-04-05T16:59:12.019Z,5.73
2023-04-05T17:01:40.455Z,6.53
2023-04-05T17:04:08.749Z,6.30
2023-04-05T17:06:37.110Z,6.67
2023-04-05T17:09:05.506Z,6.07
2023-04-05T17:11:33.845Z,6.80
2023-04-05T17:14:03.421Z,6.10
2023-04-05T17:16:31.727Z,6.23
2023-04-05T17:18:59.970Z,6.10
2023-04-05T17:21:28.218Z,5.60
2023-04-05T17:23:56.350Z,6.03
2023-04-05T17:26:24.703Z,7.40
2023-04-05T17:28:52.945Z,6.10
2023-04-05T17:31:22.735Z,6.00
2023-04-05T17:33:51.037Z,6.30
2023-04-05T17:36:19.273Z,6.30
2023-04-05T17:38:47.454Z,5.70
2023-04-05T17:41:15.714Z,6.50
2023-04-05T17:43:43.990Z,7.00
2023-04-05T17:46:14.786Z,5.97
2023-04-05T17:48:44.355Z,6.33
2023-04-05T17:51:12.713Z,5.47
2023-04-05T17:53:41.113Z,5.93
2023-04-05T17:56:09.985Z,5.73
2023-04-05T17:58:38.353Z,5.60
2023-04-05T18:01:06.560Z,6.60
2023-04-05T18:03:35.704Z,5.73
2023-04-05T18:06:06.264Z,5.87
2023-04-05T18:08:34.436Z,6.37
2023-04-05T18:11:02.593Z,6.17
2023-04-05T18:13:31.614Z,5.40
2023-04-05T18:16:00.373Z,5.60
2023-04-05T18:18:28.984Z,6.10
2023-04-05T18:21:01.716Z,5.40
2023-04-05T18:23:31.659Z,5.53
2023-04-05T18:26:00.023Z,5.30
2023-04-05T18:28:28.497Z,6.13
2023-04-05T18:30:56.770Z,5.80
2023-04-05T18:33:25.005Z,7.60
2023-04-05T18:35:53.598Z,6.20
2023-04-05T18:38:22.777Z,5.80
2023-04-05T18:40:59.737Z,7.47
2023-04-05T18:43:27.855Z,8.20
2023-04-05T18:45:56.016Z,6.13
2023-04-05T18:48:25.212Z,6.90
2023-04-05T18:50:54.047Z,6.03
2023-04-05T18:53:22.605Z,7.40
2023-04-05T18:55:53.347Z,7.70
2023-04-05T18:58:21.925Z,7.47
2023-04-05T19:00:50.214Z,6.87
2023-04-05T19:03:18.597Z,6.50
2023-04-05T19:05:50.669Z,7.97
2023-04-05T19:08:20.538Z,7.97
2023-04-05T19:10:48.852Z,7.90
2023-04-05T19:13:18.617Z,7.80
2023-04-05T19:15:46.961Z,6.70
2023-04-05T19:18:15.643Z,6.00
2023-04-05T19:20:43.830Z,6.33
2023-04-05T19:23:12.050Z,5.73
2023-04-05T19:25:40.729Z,5.60
2023-04-05T19:28:08.991Z,5.90
2023-04-05T19:30:41.422Z,6.10
2023-04-05T19:33:09.701Z,5.20
2023-04-05T19:35:37.944Z,6.30
2023-04-05T19:38:06.456Z,5.60
2023-04-05T19:40:34.692Z,5.80
2023-04-05T19:43:02.994Z,5.73
2023-04-05T19:45:32.331Z,5.50
2023-04-05T19:48:03.274Z,5.90
2023-04-05T19:50:54.336Z,5.47
2023-04-05T19:53:51.737Z,6.30
2023-04-05T19:56:21.957Z,6.40
2023-04-05T19:58:54.546Z,5.50
2023-04-05T20:01:35.054Z,5.83
2023-04-05T20:04:13.099Z,5.90
2023-04-05T20:06:42.577Z,5.93
2023-04-05T20:09:12.700Z,5.30
2023-04-05T20:11:41.116Z,6.17
2023-04-05T20:14:10.472Z,6.13
2023-04-05T20:16:40.291Z,6.17
2023-04-05T20:19:11.537Z,8.83
2023-04-05T20:21:40.136Z,7.70
2023-04-05T20:24:10.425Z,10.00
2023-04-05T20:26:38.621Z,10.83
2023-04-05T20:29:09.701Z,9.60
2023-04-05T20:31:40.084Z,8.37
2023-04-05T20:34:13.127Z,7.70
2023-04-05T20:36:49.108Z,8.10
2023-04-05T20:39:17.747Z,7.37
2023-04-05T20:41:46.191Z,8.30
2023-04-05T20:44:14.498Z,7.77
2023-04-05T20:46:43.354Z,9.20
2023-04-05T20:49:12.981Z,9.23
2023-04-05T20:51:42.895Z,9.60
2023-04-05T20:54:11.514Z,10.00
2023-04-05T20:56:39.763Z,8.50
2023-04-05T20:59:08.452Z,9.77
2023-04-05T21:01:37.896Z,8.90
2023-04-05T21:04:07.259Z,9.13
2023-04-05T21:06:37.561Z,9.20
2023-04-05T21:09:06.376Z,7.80
2023-04-05T21:11:34.821Z,7.73
2023-04-05T21:14:03.079Z,8.20
2023-04-05T21:16:31.709Z,7.93
2023-04-05T21:18:59.952Z,7.93
2023-04-05T21:21:28.162Z,8.47
2023-04-05T21:23:57.836Z,8.50
2023-04-05T21:26:26.066Z,9.33
2023-04-05T21:28:54.251Z,8.80
2023-04-05T21:31:22.510Z,9.23
2023-04-05T21:33:50.822Z,8.77
2023-04-05T21:36:19.088Z,10.13
2023-04-05T21:38:47.219Z,11.57
2023-04-05T21:41:16.831Z,12.60
2023-04-05T21:43:45.050Z,11.83
2023-04-05T21:46:13.473Z,10.40
2023-04-05T21:48:41.707Z,9.97
2023-04-05T21:51:09.897Z,9.33
2023-04-05T21:53:38.109Z,9.53
2023-04-05T21:56:06.547Z,9.90
2023-04-05T21:58:36.160Z,9.43
2023-04-05T22:01:04.488Z,7.67
2023-04-05T22:03:32.756Z,8.40
2023-04-05T22:06:02.349Z,9.60
2023-04-05T22:08:30.592Z,9.65
2023-04-05T22:10:58.895Z,8.53
2023-04-05T22:13:27.187Z,9.20
2023-04-05T22:15:56.798Z,7.70
2023-04-05T22:18:25.620Z,9.30
2023-04-05T22:20:53.818Z,7.33
2023-04-05T22:23:21.972Z,8.00
2023-04-05T22:25:51.433Z,7.37
2023-04-05T22:28:19.596Z,7.63
2023-04-05T22:30:47.768Z,7.70
2023-04-05T22:33:17.325Z,6.27
2023-04-05T22:35:45.572Z,7.13
2023-04-05T22:38:13.755Z,6.67
2023-04-05T22:40:42.095Z,7.10
2023-04-05T22:43:10.527Z,7.20
2023-04-05T22:45:38.856Z,6.87
2023-04-05T22:48:07.655Z,8.00
2023-04-05T22:50:37.329Z,6.93
2023-04-05T22:53:05.637Z,8.80
2023-04-05T22:55:33.838Z,8.20
2023-04-05T22:58:02.125Z,7.40
2023-04-05T23:00:30.307Z,7.63
2023-04-05T23:02:58.550Z,8.03
2023-04-05T23:05:27.116Z,8.10
2023-04-05T23:07:56.764Z,8.73
2023-04-05T23:10:25.021Z,7.90
2023-04-05T23:12:53.214Z,7.73
2023-04-05T23:15:21.729Z,8.10
2023-04-05T23:17:50.274Z,8.87
2023-04-05T23:20:18.560Z,9.50
2023-04-05T23:22:47.989Z,8.80
2023-04-05T23:25:17.768Z,8.17
2023-04-05T23:27:46.106Z,8.53
2023-04-05T23:30:14.893Z,8.50
2023-04-05T23:32:43.151Z,9.10
2023-04-05T23:35:11.458Z,8.90
2023-04-05T23:37:39.664Z,8.13
2023-04-05T23:40:09.111Z,8.20
2023-04-05T23:42:38.672Z,9.47
2023-04-05T23:45:09.816Z,9.93
2023-04-05T23:47:38.844Z,8.35
2023-04-05T23:50:11.279Z,8.50
2023-04-05T23:52:39.476Z,9.07
2023-04-05T23:55:08.403Z,9.32
2023-04-05T23:57:38.023Z,8.40
